• Join FlightAware (Why Join?)
  • Login
  • US Flag 
06:00AM EDT


 

Airport Tracker/Info


-or-


 

Live Flight TrackerFlight Track Log ✈ N762NC ✈ 19-Aug-2013 ✈ KDAY - KATL

Flight Track Log - Related Links

Times and Time Zones

All times are in EDT time to prevent confusion due to time zone crossing. See the N762NC flight status page for this flight to view local times or setup timezone preferences in your user account.

Time Position Orientation Groundspeed Altitude Reporting Facility
EDT Latitude Longitude Course Direction KTS MPH feet Rate Location/Type
10:31AM 39.8283 -84.2678 221° Southwest 237 273 3,500  Level Indianapolis Center
10:32AM 39.7906 -84.3464 238° Southwest 249 287 5,300 2,100 Climbing Indianapolis Center
10:33AM 39.6403 -84.6411 243° Southwest  Level FlightAware Approximate
10:33AM 39.7522 -84.4336 240° Southwest 271 312 7,900  Level Indianapolis Center
10:34AM 39.5627 -84.7000 180° South  Level FlightAware Approximate
10:34AM 39.7156 -84.5197 241° Southwest 271 312 9,700  Level Indianapolis Center
10:35AM 39.4577 -84.7000 180° South  Level FlightAware Approximate
10:35AM 39.6564 -84.5944 224° Southwest 291 335 11,400  Level Indianapolis Center
10:36AM 39.5886 -84.6725 222° Southwest 321 369 12,700 1,260 Climbing Indianapolis Center
10:37AM 39.5058 -84.7747 224° Southwest 350 403 14,100 1,260 Climbing Indianapolis Center
10:38AM 39.4139 -84.8417 209° Southwest 372 428 15,400 1,200 Climbing Indianapolis Center
10:39AM 39.3269 -84.9022 208° Southwest 389 448 16,600 1,080 Climbing Indianapolis Center
10:40AM 39.2247 -84.9728 208° Southwest 411 473 17,700 1,200 Climbing Indianapolis Center
10:41AM 39.1000 -85.0603 209° Southwest 425 489 19,200 1,320 Climbing Indianapolis Center
10:42AM 38.9886 -85.1228 204° Southwest 435 501 20,500 1,200 Climbing Indianapolis Center
10:43AM 38.8792 -85.1933 207° Southwest 439 505 21,700 1,080 Climbing Indianapolis Center
10:44AM 38.7692 -85.2642 207° Southwest 441 507 22,800 1,080 Climbing Indianapolis Center
10:45AM 38.6592 -85.3361 207° Southwest 442 509 24,000 960 Climbing Indianapolis Center
10:46AM 38.5239 -85.3969 199° South 449 517 24,900 960 Climbing Indianapolis Center
10:47AM 38.4014 -85.4492 198° South 457 526 26,000 840 Climbing Indianapolis Center
10:48AM 38.2806 -85.5086 201° Southwest 461 531 26,700 720 Climbing Indianapolis Center
10:49AM 38.1622 -85.5825 206° Southwest 468 539 27,500 900 Climbing Indianapolis Center
10:50AM 38.0458 -85.6542 206° Southwest 466 536 28,600 720 Climbing Indianapolis Center
10:51AM 37.9294 -85.7283 207° Southwest 465 535 29,000 180 Climbing Indianapolis Center
10:52AM 37.8142 -85.8058 208° Southwest 466 536 29,000  Level Indianapolis Center
10:53AM 37.6850 -85.9117 213° Southwest 459 528 29,000  Level Indianapolis Center
10:54AM 37.5808 -86.0042 215° Southwest 457 526 29,000  Level Indianapolis Center
10:55AM 37.4658 -86.0925 211° Southwest 457 526 29,000  Level Indianapolis Center
10:57AM 37.3542 -86.1714 209° Southwest 457 526 29,000  Level Indianapolis Center
10:58AM 37.2422 -86.2481 209° Southwest 455 524 29,000  Level Indianapolis Center
10:59AM 37.1278 -86.3194 206° Southwest 455 524 29,000  Level Indianapolis Center
11:00AM 36.9936 -86.3961 205° Southwest 462 532 29,000  Level Memphis Center
11:01AM 36.8764 -86.4458 199° South 456 525 29,000  Level Memphis Center
11:02AM 36.7467 -86.4289 174° South 444 511 29,000  Level Memphis Center
11:03AM 36.6339 -86.4214 177° South 458 527 29,000  Level Memphis Center
11:04AM 36.5064 -86.4097 176° South 468 539 29,000  Level Memphis Center
11:05AM 36.3789 -86.3978 176° South 462 532 29,000  Level Memphis Center
11:06AM 36.2492 -86.3886 177° South 462 532 29,000  Level Memphis Center
11:07AM 36.1094 -86.3800 177° South 462 532 29,000  Level Memphis Center
11:08AM 35.9842 -86.3733 178° South 462 532 29,000  Level Memphis Center
11:10AM 35.7364 -86.3411 174° South 460 529 29,000  Level Atlanta Center
11:11AM 35.6253 -86.2511 147° Southeast 453 521 29,000  Level Atlanta Center
11:12AM 35.5331 -86.1697 144° Southeast 467 537 29,000  Level Atlanta Center
11:13AM 35.4239 -86.0853 148° Southeast 461 531 29,000  Level Atlanta Center
11:14AM 35.3061 -86.0136 154° Southeast 461 531 29,000  Level Atlanta Center
11:15AM 35.1922 -85.9500 155° Southeast 461 531 29,000  Level Atlanta Center
11:16AM 35.0806 -85.8864 155° Southeast 456 525 29,000  Level Atlanta Center
11:17AM 34.9647 -85.8181 154° Southeast 456 525 29,000 -600 Level Atlanta Center
11:18AM 34.8553 -85.7347 148° Southeast 456 525 27,800 -1,440 Descending Atlanta Center
11:19AM 34.7481 -85.6339 142° Southeast 477 549 26,200 -2,100 Descending Atlanta Center
11:20AM 34.6492 -85.5311 139° Southeast 482 555 23,600 -3,000 Descending Atlanta Center
11:21AM 34.5525 -85.4308 139° Southeast 471 542 20,300 -3,120 Descending Atlanta Center
11:22AM 34.4531 -85.3461 145° Southeast 457 526 17,400 -2,820 Descending Atlanta Center
11:23AM 34.3539 -85.2667 147° Southeast 445 512 14,700 -2,220 Descending Atlanta Center
11:24AM 34.2606 -85.2025 150° Southeast 412 474 13,000 -900 Descending Atlanta Center
11:25AM 34.1858 -85.1361 144° Southeast 361 415 13,000  Level Atlanta Center
11:26AM 34.1281 -85.0625 133° Southeast 313 360 13,000 -180 Level Atlanta Center
11:27AM 34.0744 -84.9919 133° Southeast 290 334 12,700 -1,020 Descending Atlanta Center
11:28AM 34.0017 -84.9583 159° South 278 320 11,000 -1,500 Descending Atlanta Center
11:29AM 33.9225 -84.9300 163° South 284 327 9,700 -1,020 Descending Atlanta Center
11:30AM 33.8497 -84.8917 156° South 289 333 9,000 -780 Descending Atlanta Center
11:31AM 33.7792 -84.8486 153° Southeast 284 327 8,200 -1,140 Descending Atlanta Center
11:32AM 33.7106 -84.8081 154° Southeast 279 321 6,800 -1,080 Descending Atlanta Center
11:33AM 33.6586 -84.7600 142° Southeast 257 296 6,100 -960 Descending Atlanta Center
11:34AM 33.6500 -84.6667 96° East 192 221 4,700 -1,080 Descending Atlanta TRACON
11:35AM 33.6500 -84.6167 90° East 180 207 3,800 -1,020 Descending Atlanta TRACON
11:36AM 33.6500 -84.5500 90° East 188 216 2,700 -960 Descending Atlanta TRACON
11:37AM 33.6500 -84.5000 90° East 157 181 1,900 -840 Descending Atlanta TRACON